sensor_id;sensor_type;location;lat;lon;timestamp;P1;durP1;ratioP1;P2;durP2;ratioP2
54883;SDS011;40776;52.880;6.016;2022-12-18T00:01:37;106.00;;;33.35;;
54883;SDS011;40776;52.880;6.016;2022-12-18T00:04:04;113.72;;;37.40;;
54883;SDS011;40776;52.880;6.016;2022-12-18T00:06:31;79.65;;;28.65;;
54883;SDS011;40776;52.880;6.016;2022-12-18T00:08:58;70.32;;;22.70;;
54883;SDS011;40776;52.880;6.016;2022-12-18T00:11:25;97.28;;;27.75;;
54883;SDS011;40776;52.880;6.016;2022-12-18T00:13:53;100.53;;;27.83;;
54883;SDS011;40776;52.880;6.016;2022-12-18T00:16:20;104.70;;;35.05;;
54883;SDS011;40776;52.880;6.016;2022-12-18T00:18:46;108.97;;;34.83;;
54883;SDS011;40776;52.880;6.016;2022-12-18T00:21:13;67.45;;;22.35;;
54883;SDS011;40776;52.880;6.016;2022-12-18T00:23:40;105.53;;;33.33;;
54883;SDS011;40776;52.880;6.016;2022-12-18T00:26:07;119.45;;;34.13;;
54883;SDS011;40776;52.880;6.016;2022-12-18T00:28:34;114.22;;;31.77;;
54883;SDS011;40776;52.880;6.016;2022-12-18T00:31:01;103.53;;;32.60;;
54883;SDS011;40776;52.880;6.016;2022-12-18T00:33:27;109.03;;;32.60;;
54883;SDS011;40776;52.880;6.016;2022-12-18T00:35:53;105.47;;;32.97;;
54883;SDS011;40776;52.880;6.016;2022-12-18T00:38:19;75.93;;;24.45;;
54883;SDS011;40776;52.880;6.016;2022-12-18T00:40:45;105.70;;;32.28;;
54883;SDS011;40776;52.880;6.016;2022-12-18T00:43:11;89.70;;;25.48;;
54883;SDS011;40776;52.880;6.016;2022-12-18T00:45:37;101.78;;;33.72;;
54883;SDS011;40776;52.880;6.016;2022-12-18T00:48:04;111.55;;;29.73;;
54883;SDS011;40776;52.880;6.016;2022-12-18T00:50:30;66.72;;;22.77;;
54883;SDS011;40776;52.880;6.016;2022-12-18T00:52:56;107.15;;;31.10;;
54883;SDS011;40776;52.880;6.016;2022-12-18T00:55:22;82.40;;;26.00;;
54883;SDS011;40776;52.880;6.016;2022-12-18T00:57:48;83.20;;;25.27;;
54883;SDS011;40776;52.880;6.016;2022-12-18T01:00:14;87.93;;;26.33;;
54883;SDS011;40776;52.880;6.016;2022-12-18T01:02:40;111.15;;;33.40;;
54883;SDS011;40776;52.880;6.016;2022-12-18T01:05:07;107.72;;;32.65;;
54883;SDS011;40776;52.880;6.016;2022-12-18T01:07:33;81.68;;;23.05;;
54883;SDS011;40776;52.880;6.016;2022-12-18T01:09:59;101.15;;;31.88;;
54883;SDS011;40776;52.880;6.016;2022-12-18T01:12:25;102.90;;;31.88;;
54883;SDS011;40776;52.880;6.016;2022-12-18T01:14:52;75.65;;;25.20;;
54883;SDS011;40776;52.880;6.016;2022-12-18T01:17:18;105.30;;;30.10;;
54883;SDS011;40776;52.880;6.016;2022-12-18T01:19:44;107.85;;;33.17;;
54883;SDS011;40776;52.880;6.016;2022-12-18T01:22:10;91.95;;;27.83;;
54883;SDS011;40776;52.880;6.016;2022-12-18T01:24:36;105.10;;;31.98;;
54883;SDS011;40776;52.880;6.016;2022-12-18T01:27:02;98.60;;;31.75;;
54883;SDS011;40776;52.880;6.016;2022-12-18T01:29:28;102.90;;;32.55;;
54883;SDS011;40776;52.880;6.016;2022-12-18T01:31:55;102.20;;;31.27;;
54883;SDS011;40776;52.880;6.016;2022-12-18T01:34:21;91.85;;;29.40;;
54883;SDS011;40776;52.880;6.016;2022-12-18T01:36:47;93.57;;;27.48;;
54883;SDS011;40776;52.880;6.016;2022-12-18T01:39:14;81.93;;;24.17;;
54883;SDS011;40776;52.880;6.016;2022-12-18T01:41:40;102.75;;;30.02;;
54883;SDS011;40776;52.880;6.016;2022-12-18T01:44:51;109.40;;;31.75;;
54883;SDS011;40776;52.880;6.016;2022-12-18T01:47:15;95.72;;;30.58;;
54883;SDS011;40776;52.880;6.016;2022-12-18T01:49:44;97.60;;;30.77;;
54883;SDS011;40776;52.880;6.016;2022-12-18T01:52:10;103.10;;;29.85;;
54883;SDS011;40776;52.880;6.016;2022-12-18T01:54:36;85.15;;;26.95;;
54883;SDS011;40776;52.880;6.016;2022-12-18T01:57:02;103.45;;;31.55;;
54883;SDS011;40776;52.880;6.016;2022-12-18T01:59:28;109.15;;;33.83;;
54883;SDS011;40776;52.880;6.016;2022-12-18T02:01:55;47.70;;;16.77;;
54883;SDS011;40776;52.880;6.016;2022-12-18T02:04:25;102.95;;;31.33;;
54883;SDS011;40776;52.880;6.016;2022-12-18T02:06:59;110.85;;;35.42;;
54883;SDS011;40776;52.880;6.016;2022-12-18T02:12:21;93.50;;;31.15;;
54883;SDS011;40776;52.880;6.016;2022-12-18T02:17:19;100.38;;;28.33;;
54883;SDS011;40776;52.880;6.016;2022-12-18T02:24:47;126.78;;;37.15;;
54883;SDS011;40776;52.880;6.016;2022-12-18T02:27:17;120.28;;;36.28;;
54883;SDS011;40776;52.880;6.016;2022-12-18T02:29:46;118.35;;;35.42;;
54883;SDS011;40776;52.880;6.016;2022-12-18T02:32:15;118.07;;;34.23;;
54883;SDS011;40776;52.880;6.016;2022-12-18T02:34:42;108.07;;;35.13;;
54883;SDS011;40776;52.880;6.016;2022-12-18T02:37:10;115.25;;;32.60;;
54883;SDS011;40776;52.880;6.016;2022-12-18T02:39:38;64.38;;;22.63;;
54883;SDS011;40776;52.880;6.016;2022-12-18T02:42:06;107.28;;;31.98;;
54883;SDS011;40776;52.880;6.016;2022-12-18T02:44:45;114.78;;;31.67;;
54883;SDS011;40776;52.880;6.016;2022-12-18T02:47:12;113.03;;;34.35;;
54883;SDS011;40776;52.880;6.016;2022-12-18T02:52:14;117.45;;;36.08;;
54883;SDS011;40776;52.880;6.016;2022-12-18T02:54:55;74.38;;;24.55;;
54883;SDS011;40776;52.880;6.016;2022-12-18T02:59:55;85.50;;;27.33;;
54883;SDS011;40776;52.880;6.016;2022-12-18T03:04:50;116.57;;;33.72;;
54883;SDS011;40776;52.880;6.016;2022-12-18T03:09:48;99.72;;;31.23;;
54883;SDS011;40776;52.880;6.016;2022-12-18T03:12:23;120.00;;;35.72;;
54883;SDS011;40776;52.880;6.016;2022-12-18T03:15:03;104.30;;;33.15;;
54883;SDS011;40776;52.880;6.016;2022-12-18T03:17:31;101.40;;;33.03;;
54883;SDS011;40776;52.880;6.016;2022-12-18T03:19:58;96.32;;;33.55;;
54883;SDS011;40776;52.880;6.016;2022-12-18T03:22:26;102.40;;;30.02;;
54883;SDS011;40776;52.880;6.016;2022-12-18T03:24:53;113.00;;;34.63;;
54883;SDS011;40776;52.880;6.016;2022-12-18T03:27:19;103.82;;;32.08;;
54883;SDS011;40776;52.880;6.016;2022-12-18T03:29:49;104.40;;;31.88;;
54883;SDS011;40776;52.880;6.016;2022-12-18T03:32:25;98.13;;;32.55;;
54883;SDS011;40776;52.880;6.016;2022-12-18T03:34:53;91.32;;;32.05;;
54883;SDS011;40776;52.880;6.016;2022-12-18T03:37:21;98.78;;;32.28;;
54883;SDS011;40776;52.880;6.016;2022-12-18T03:39:47;86.72;;;30.42;;
54883;SDS011;40776;52.880;6.016;2022-12-18T03:44:52;97.35;;;31.23;;
54883;SDS011;40776;52.880;6.016;2022-12-18T03:52:52;81.53;;;30.15;;
54883;SDS011;40776;52.880;6.016;2022-12-18T03:55:17;79.93;;;29.10;;
54883;SDS011;40776;52.880;6.016;2022-12-18T03:57:43;81.68;;;28.38;;
54883;SDS011;40776;52.880;6.016;2022-12-18T04:00:13;86.72;;;29.08;;
54883;SDS011;40776;52.880;6.016;2022-12-18T04:02:42;68.25;;;26.52;;
54883;SDS011;40776;52.880;6.016;2022-12-18T04:05:09;73.55;;;29.77;;
54883;SDS011;40776;52.880;6.016;2022-12-18T04:07:36;84.55;;;28.13;;
54883;SDS011;40776;52.880;6.016;2022-12-18T04:10:03;71.15;;;25.90;;
54883;SDS011;40776;52.880;6.016;2022-12-18T04:12:31;75.03;;;27.30;;
54883;SDS011;40776;52.880;6.016;2022-12-18T04:14:57;72.13;;;26.80;;
54883;SDS011;40776;52.880;6.016;2022-12-18T04:17:23;70.60;;;26.05;;
54883;SDS011;40776;52.880;6.016;2022-12-18T04:19:50;72.07;;;26.08;;
54883;SDS011;40776;52.880;6.016;2022-12-18T04:22:16;80.65;;;28.70;;
54883;SDS011;40776;52.880;6.016;2022-12-18T04:24:42;75.85;;;26.35;;
54883;SDS011;40776;52.880;6.016;2022-12-18T04:27:08;71.22;;;27.63;;
54883;SDS011;40776;52.880;6.016;2022-12-18T04:29:34;80.55;;;27.48;;
54883;SDS011;40776;52.880;6.016;2022-12-18T04:32:00;66.80;;;22.85;;
54883;SDS011;40776;52.880;6.016;2022-12-18T04:34:26;67.63;;;22.60;;
54883;SDS011;40776;52.880;6.016;2022-12-18T04:36:52;70.85;;;27.70;;
54883;SDS011;40776;52.880;6.016;2022-12-18T04:39:18;64.20;;;24.42;;
54883;SDS011;40776;52.880;6.016;2022-12-18T04:41:44;73.10;;;24.88;;
54883;SDS011;40776;52.880;6.016;2022-12-18T04:44:11;69.47;;;22.92;;
54883;SDS011;40776;52.880;6.016;2022-12-18T04:46:37;81.25;;;26.05;;
54883;SDS011;40776;52.880;6.016;2022-12-18T04:49:03;78.35;;;27.15;;
54883;SDS011;40776;52.880;6.016;2022-12-18T04:51:29;71.18;;;22.95;;
54883;SDS011;40776;52.880;6.016;2022-12-18T04:53:55;58.50;;;20.40;;
54883;SDS011;40776;52.880;6.016;2022-12-18T04:56:21;67.15;;;26.45;;
54883;SDS011;40776;52.880;6.016;2022-12-18T04:58:47;69.78;;;25.40;;
54883;SDS011;40776;52.880;6.016;2022-12-18T05:01:14;78.63;;;25.98;;
54883;SDS011;40776;52.880;6.016;2022-12-18T05:03:40;75.22;;;26.55;;
54883;SDS011;40776;52.880;6.016;2022-12-18T05:06:06;53.65;;;20.60;;
54883;SDS011;40776;52.880;6.016;2022-12-18T05:08:33;64.45;;;24.27;;
54883;SDS011;40776;52.880;6.016;2022-12-18T05:10:59;64.57;;;22.30;;
54883;SDS011;40776;52.880;6.016;2022-12-18T05:13:26;68.80;;;24.10;;
54883;SDS011;40776;52.880;6.016;2022-12-18T05:15:52;73.10;;;24.98;;
54883;SDS011;40776;52.880;6.016;2022-12-18T05:18:18;61.65;;;22.73;;
54883;SDS011;40776;52.880;6.016;2022-12-18T05:20:44;65.13;;;22.30;;
54883;SDS011;40776;52.880;6.016;2022-12-18T05:23:10;55.28;;;19.55;;
54883;SDS011;40776;52.880;6.016;2022-12-18T05:25:36;60.60;;;23.77;;
54883;SDS011;40776;52.880;6.016;2022-12-18T05:28:02;61.30;;;23.08;;
54883;SDS011;40776;52.880;6.016;2022-12-18T05:30:29;65.38;;;22.70;;
54883;SDS011;40776;52.880;6.016;2022-12-18T05:32:55;67.63;;;25.95;;
54883;SDS011;40776;52.880;6.016;2022-12-18T05:35:21;67.82;;;23.35;;
54883;SDS011;40776;52.880;6.016;2022-12-18T05:37:47;57.92;;;21.60;;
54883;SDS011;40776;52.880;6.016;2022-12-18T05:42:39;51.05;;;17.92;;
54883;SDS011;40776;52.880;6.016;2022-12-18T05:45:05;60.65;;;22.63;;
54883;SDS011;40776;52.880;6.016;2022-12-18T05:47:31;50.65;;;16.50;;
54883;SDS011;40776;52.880;6.016;2022-12-18T05:49:57;57.33;;;22.48;;
54883;SDS011;40776;52.880;6.016;2022-12-18T05:52:23;54.72;;;20.45;;
54883;SDS011;40776;52.880;6.016;2022-12-18T05:54:50;45.10;;;18.80;;
54883;SDS011;40776;52.880;6.016;2022-12-18T05:57:16;47.97;;;16.60;;
54883;SDS011;40776;52.880;6.016;2022-12-18T05:59:42;51.45;;;19.58;;
54883;SDS011;40776;52.880;6.016;2022-12-18T06:02:08;56.97;;;20.73;;
54883;SDS011;40776;52.880;6.016;2022-12-18T06:04:34;60.00;;;21.40;;
54883;SDS011;40776;52.880;6.016;2022-12-18T06:07:00;52.85;;;19.52;;
54883;SDS011;40776;52.880;6.016;2022-12-18T06:09:26;60.28;;;20.52;;
54883;SDS011;40776;52.880;6.016;2022-12-18T06:11:52;54.80;;;20.67;;
54883;SDS011;40776;52.880;6.016;2022-12-18T06:14:18;58.08;;;20.85;;
54883;SDS011;40776;52.880;6.016;2022-12-18T06:16:44;58.40;;;21.48;;
54883;SDS011;40776;52.880;6.016;2022-12-18T06:19:12;54.83;;;20.02;;
54883;SDS011;40776;52.880;6.016;2022-12-18T06:21:39;53.53;;;20.38;;
54883;SDS011;40776;52.880;6.016;2022-12-18T06:24:05;58.25;;;21.35;;
54883;SDS011;40776;52.880;6.016;2022-12-18T06:26:31;58.05;;;21.25;;
54883;SDS011;40776;52.880;6.016;2022-12-18T06:28:57;54.78;;;19.85;;
54883;SDS011;40776;52.880;6.016;2022-12-18T06:31:23;57.75;;;20.52;;
54883;SDS011;40776;52.880;6.016;2022-12-18T06:33:49;58.65;;;21.58;;
54883;SDS011;40776;52.880;6.016;2022-12-18T06:36:15;49.95;;;19.10;;
54883;SDS011;40776;52.880;6.016;2022-12-18T06:38:42;54.20;;;21.20;;
54883;SDS011;40776;52.880;6.016;2022-12-18T06:41:15;45.83;;;18.27;;
54883;SDS011;40776;52.880;6.016;2022-12-18T06:43:42;51.90;;;20.50;;
54883;SDS011;40776;52.880;6.016;2022-12-18T06:46:08;53.00;;;20.67;;
54883;SDS011;40776;52.880;6.016;2022-12-18T06:48:35;35.03;;;11.45;;
54883;SDS011;40776;52.880;6.016;2022-12-18T06:51:01;47.42;;;17.17;;
54883;SDS011;40776;52.880;6.016;2022-12-18T06:53:27;52.75;;;18.48;;
54883;SDS011;40776;52.880;6.016;2022-12-18T06:55:59;47.05;;;18.60;;
54883;SDS011;40776;52.880;6.016;2022-12-18T06:58:25;42.83;;;16.45;;
54883;SDS011;40776;52.880;6.016;2022-12-18T07:00:52;48.67;;;17.75;;
54883;SDS011;40776;52.880;6.016;2022-12-18T07:03:18;44.28;;;17.10;;
54883;SDS011;40776;52.880;6.016;2022-12-18T07:05:44;46.33;;;18.52;;
54883;SDS011;40776;52.880;6.016;2022-12-18T07:08:10;45.17;;;16.08;;
54883;SDS011;40776;52.880;6.016;2022-12-18T07:10:43;36.20;;;15.68;;
54883;SDS011;40776;52.880;6.016;2022-12-18T07:13:09;46.83;;;19.17;;
54883;SDS011;40776;52.880;6.016;2022-12-18T07:15:35;42.70;;;16.70;;
54883;SDS011;40776;52.880;6.016;2022-12-18T07:18:01;43.10;;;18.23;;
54883;SDS011;40776;52.880;6.016;2022-12-18T07:20:27;41.13;;;16.88;;
54883;SDS011;40776;52.880;6.016;2022-12-18T07:22:53;42.67;;;15.77;;
54883;SDS011;40776;52.880;6.016;2022-12-18T07:25:19;39.92;;;15.75;;
54883;SDS011;40776;52.880;6.016;2022-12-18T07:27:45;40.70;;;16.08;;
54883;SDS011;40776;52.880;6.016;2022-12-18T07:30:11;38.80;;;17.25;;
54883;SDS011;40776;52.880;6.016;2022-12-18T07:32:37;37.28;;;15.35;;
54883;SDS011;40776;52.880;6.016;2022-12-18T07:35:03;38.85;;;16.05;;
54883;SDS011;40776;52.880;6.016;2022-12-18T07:37:29;34.97;;;16.50;;
54883;SDS011;40776;52.880;6.016;2022-12-18T07:39:55;39.25;;;16.80;;
54883;SDS011;40776;52.880;6.016;2022-12-18T07:42:21;42.92;;;17.17;;
54883;SDS011;40776;52.880;6.016;2022-12-18T07:44:59;31.92;;;14.55;;
54883;SDS011;40776;52.880;6.016;2022-12-18T07:47:27;42.08;;;16.40;;
54883;SDS011;40776;52.880;6.016;2022-12-18T07:49:53;32.55;;;14.30;;
54883;SDS011;40776;52.880;6.016;2022-12-18T07:52:19;39.90;;;16.67;;
54883;SDS011;40776;52.880;6.016;2022-12-18T07:54:45;39.92;;;16.35;;
54883;SDS011;40776;52.880;6.016;2022-12-18T07:57:14;44.35;;;16.80;;
54883;SDS011;40776;52.880;6.016;2022-12-18T07:59:41;44.85;;;18.67;;
54883;SDS011;40776;52.880;6.016;2022-12-18T08:02:07;34.63;;;14.13;;
54883;SDS011;40776;52.880;6.016;2022-12-18T08:04:33;38.40;;;15.25;;
54883;SDS011;40776;52.880;6.016;2022-12-18T08:06:59;36.25;;;14.82;;
54883;SDS011;40776;52.880;6.016;2022-12-18T08:09:25;30.00;;;12.48;;
54883;SDS011;40776;52.880;6.016;2022-12-18T08:11:51;32.25;;;11.60;;
54883;SDS011;40776;52.880;6.016;2022-12-18T08:14:17;37.17;;;15.57;;
54883;SDS011;40776;52.880;6.016;2022-12-18T08:16:43;39.83;;;16.35;;
54883;SDS011;40776;52.880;6.016;2022-12-18T08:19:09;36.83;;;13.95;;
54883;SDS011;40776;52.880;6.016;2022-12-18T08:21:35;43.33;;;15.52;;
54883;SDS011;40776;52.880;6.016;2022-12-18T08:24:01;27.08;;;11.15;;
54883;SDS011;40776;52.880;6.016;2022-12-18T08:26:29;37.15;;;14.40;;
54883;SDS011;40776;52.880;6.016;2022-12-18T08:28:55;38.95;;;16.33;;
54883;SDS011;40776;52.880;6.016;2022-12-18T08:31:22;36.85;;;15.63;;
54883;SDS011;40776;52.880;6.016;2022-12-18T08:33:49;39.83;;;16.45;;
54883;SDS011;40776;52.880;6.016;2022-12-18T08:36:16;34.17;;;14.35;;
54883;SDS011;40776;52.880;6.016;2022-12-18T08:38:42;34.00;;;13.48;;
54883;SDS011;40776;52.880;6.016;2022-12-18T08:41:09;28.38;;;11.75;;
54883;SDS011;40776;52.880;6.016;2022-12-18T08:43:35;38.03;;;13.98;;
54883;SDS011;40776;52.880;6.016;2022-12-18T08:46:21;28.85;;;13.10;;
54883;SDS011;40776;52.880;6.016;2022-12-18T08:48:47;30.83;;;13.95;;
54883;SDS011;40776;52.880;6.016;2022-12-18T08:51:16;33.92;;;13.48;;
54883;SDS011;40776;52.880;6.016;2022-12-18T08:53:42;36.58;;;15.73;;
54883;SDS011;40776;52.880;6.016;2022-12-18T08:56:09;32.65;;;14.93;;
54883;SDS011;40776;52.880;6.016;2022-12-18T08:58:39;26.38;;;10.23;;
54883;SDS011;40776;52.880;6.016;2022-12-18T09:01:06;24.50;;;12.15;;
54883;SDS011;40776;52.880;6.016;2022-12-18T09:03:34;18.95;;;9.50;;
54883;SDS011;40776;52.880;6.016;2022-12-18T09:06:00;26.05;;;12.02;;
54883;SDS011;40776;52.880;6.016;2022-12-18T09:08:26;31.80;;;13.68;;
54883;SDS011;40776;52.880;6.016;2022-12-18T09:10:53;29.52;;;14.13;;
54883;SDS011;40776;52.880;6.016;2022-12-18T09:13:20;28.50;;;11.88;;
54883;SDS011;40776;52.880;6.016;2022-12-18T09:15:50;26.83;;;12.13;;
54883;SDS011;40776;52.880;6.016;2022-12-18T09:18:16;32.63;;;13.67;;
54883;SDS011;40776;52.880;6.016;2022-12-18T09:20:43;28.40;;;13.10;;
54883;SDS011;40776;52.880;6.016;2022-12-18T09:23:09;26.33;;;13.15;;
54883;SDS011;40776;52.880;6.016;2022-12-18T09:25:35;25.48;;;13.05;;
54883;SDS011;40776;52.880;6.016;2022-12-18T09:28:03;30.48;;;13.02;;
54883;SDS011;40776;52.880;6.016;2022-12-18T09:30:29;28.70;;;12.25;;
54883;SDS011;40776;52.880;6.016;2022-12-18T09:32:55;26.55;;;12.55;;
54883;SDS011;40776;52.880;6.016;2022-12-18T09:35:21;21.95;;;10.98;;
54883;SDS011;40776;52.880;6.016;2022-12-18T09:37:47;27.00;;;11.73;;
54883;SDS011;40776;52.880;6.016;2022-12-18T09:40:14;22.63;;;10.75;;
54883;SDS011;40776;52.880;6.016;2022-12-18T09:42:40;22.83;;;11.27;;
54883;SDS011;40776;52.880;6.016;2022-12-18T09:45:11;23.75;;;10.65;;
54883;SDS011;40776;52.880;6.016;2022-12-18T09:47:39;21.65;;;11.15;;
54883;SDS011;40776;52.880;6.016;2022-12-18T09:50:28;18.63;;;9.20;;
54883;SDS011;40776;52.880;6.016;2022-12-18T09:52:54;16.33;;;8.43;;
54883;SDS011;40776;52.880;6.016;2022-12-18T09:57:57;24.63;;;11.32;;
54883;SDS011;40776;52.880;6.016;2022-12-18T10:00:26;20.15;;;8.98;;
54883;SDS011;40776;52.880;6.016;2022-12-18T10:02:53;18.98;;;9.40;;
54883;SDS011;40776;52.880;6.016;2022-12-18T10:06:05;20.40;;;9.57;;
54883;SDS011;40776;52.880;6.016;2022-12-18T10:13:52;18.02;;;8.90;;
54883;SDS011;40776;52.880;6.016;2022-12-18T10:16:29;21.38;;;9.57;;
54883;SDS011;40776;52.880;6.016;2022-12-18T10:24:09;20.20;;;9.20;;
54883;SDS011;40776;52.880;6.016;2022-12-18T10:26:41;19.50;;;8.80;;
54883;SDS011;40776;52.880;6.016;2022-12-18T10:29:13;18.45;;;9.82;;
54883;SDS011;40776;52.880;6.016;2022-12-18T10:31:39;20.08;;;9.20;;
54883;SDS011;40776;52.880;6.016;2022-12-18T10:34:09;25.10;;;9.55;;
54883;SDS011;40776;52.880;6.016;2022-12-18T10:36:35;20.43;;;9.40;;
54883;SDS011;40776;52.880;6.016;2022-12-18T10:39:21;16.13;;;7.95;;
54883;SDS011;40776;52.880;6.016;2022-12-18T10:41:47;18.17;;;8.90;;
54883;SDS011;40776;52.880;6.016;2022-12-18T10:44:20;15.50;;;6.97;;
54883;SDS011;40776;52.880;6.016;2022-12-18T10:46:48;11.55;;;5.93;;
54883;SDS011;40776;52.880;6.016;2022-12-18T10:49:33;16.73;;;7.95;;
54883;SDS011;40776;52.880;6.016;2022-12-18T10:52:15;15.82;;;8.82;;
54883;SDS011;40776;52.880;6.016;2022-12-18T10:54:46;16.75;;;8.68;;
54883;SDS011;40776;52.880;6.016;2022-12-18T10:57:14;16.05;;;7.75;;
54883;SDS011;40776;52.880;6.016;2022-12-18T10:59:51;20.45;;;9.00;;
54883;SDS011;40776;52.880;6.016;2022-12-18T11:05:32;18.60;;;8.13;;
54883;SDS011;40776;52.880;6.016;2022-12-18T11:07:59;21.92;;;11.20;;
54883;SDS011;40776;52.880;6.016;2022-12-18T11:10:36;17.10;;;8.02;;
54883;SDS011;40776;52.880;6.016;2022-12-18T11:13:18;13.70;;;7.20;;
54883;SDS011;40776;52.880;6.016;2022-12-18T11:15:45;15.35;;;7.95;;
54883;SDS011;40776;52.880;6.016;2022-12-18T11:18:31;13.43;;;6.80;;
54883;SDS011;40776;52.880;6.016;2022-12-18T11:21:00;15.25;;;7.20;;
54883;SDS011;40776;52.880;6.016;2022-12-18T11:23:31;14.70;;;7.15;;
54883;SDS011;40776;52.880;6.016;2022-12-18T11:25:58;13.45;;;7.28;;
54883;SDS011;40776;52.880;6.016;2022-12-18T11:28:25;15.88;;;7.20;;
54883;SDS011;40776;52.880;6.016;2022-12-18T11:33:38;15.57;;;7.75;;
54883;SDS011;40776;52.880;6.016;2022-12-18T11:36:05;13.20;;;6.30;;
54883;SDS011;40776;52.880;6.016;2022-12-18T11:38:34;16.75;;;7.15;;
54883;SDS011;40776;52.880;6.016;2022-12-18T11:43:35;12.98;;;7.15;;
54883;SDS011;40776;52.880;6.016;2022-12-18T11:46:05;12.77;;;6.50;;
54883;SDS011;40776;52.880;6.016;2022-12-18T11:48:38;16.05;;;6.93;;
54883;SDS011;40776;52.880;6.016;2022-12-18T11:51:11;14.80;;;7.20;;
54883;SDS011;40776;52.880;6.016;2022-12-18T11:53:38;13.55;;;7.50;;
54883;SDS011;40776;52.880;6.016;2022-12-18T11:58:56;12.77;;;5.97;;
54883;SDS011;40776;52.880;6.016;2022-12-18T12:04:22;12.05;;;6.22;;
54883;SDS011;40776;52.880;6.016;2022-12-18T12:17:07;11.80;;;6.50;;
54883;SDS011;40776;52.880;6.016;2022-12-18T12:19:45;14.15;;;7.45;;
54883;SDS011;40776;52.880;6.016;2022-12-18T12:22:20;16.75;;;6.65;;
54883;SDS011;40776;52.880;6.016;2022-12-18T12:24:59;13.48;;;7.30;;
54883;SDS011;40776;52.880;6.016;2022-12-18T12:35:03;12.30;;;6.68;;
54883;SDS011;40776;52.880;6.016;2022-12-18T12:40:14;15.63;;;7.60;;
54883;SDS011;40776;52.880;6.016;2022-12-18T12:42:51;12.02;;;6.15;;
54883;SDS011;40776;52.880;6.016;2022-12-18T12:48:15;12.25;;;6.03;;
54883;SDS011;40776;52.880;6.016;2022-12-18T12:50:42;10.40;;;5.75;;
54883;SDS011;40776;52.880;6.016;2022-12-18T12:53:11;11.70;;;6.03;;
54883;SDS011;40776;52.880;6.016;2022-12-18T12:55:40;9.63;;;5.00;;
54883;SDS011;40776;52.880;6.016;2022-12-18T12:58:14;13.45;;;6.72;;
54883;SDS011;40776;52.880;6.016;2022-12-18T13:00:54;12.02;;;6.55;;
54883;SDS011;40776;52.880;6.016;2022-12-18T13:08:25;14.57;;;6.53;;
54883;SDS011;40776;52.880;6.016;2022-12-18T13:10:51;14.23;;;6.53;;
54883;SDS011;40776;52.880;6.016;2022-12-18T13:13:59;11.65;;;5.85;;
54883;SDS011;40776;52.880;6.016;2022-12-18T13:16:25;11.98;;;6.78;;
54883;SDS011;40776;52.880;6.016;2022-12-18T13:18:55;12.45;;;5.90;;
54883;SDS011;40776;52.880;6.016;2022-12-18T13:23:52;13.82;;;5.80;;
54883;SDS011;40776;52.880;6.016;2022-12-18T13:31:11;10.82;;;5.82;;
54883;SDS011;40776;52.880;6.016;2022-12-18T13:36:14;11.00;;;5.45;;
54883;SDS011;40776;52.880;6.016;2022-12-18T13:38:41;12.57;;;6.30;;
54883;SDS011;40776;52.880;6.016;2022-12-18T13:43:44;13.20;;;6.47;;
54883;SDS011;40776;52.880;6.016;2022-12-18T13:46:29;9.65;;;5.28;;
54883;SDS011;40776;52.880;6.016;2022-12-18T13:49:02;10.30;;;5.97;;
54883;SDS011;40776;52.880;6.016;2022-12-18T13:51:31;10.02;;;5.97;;
54883;SDS011;40776;52.880;6.016;2022-12-18T13:53:59;10.05;;;5.22;;
54883;SDS011;40776;52.880;6.016;2022-12-18T13:56:26;12.75;;;6.25;;
54883;SDS011;40776;52.880;6.016;2022-12-18T13:59:03;10.45;;;5.47;;
54883;SDS011;40776;52.880;6.016;2022-12-18T14:01:29;12.70;;;6.35;;
54883;SDS011;40776;52.880;6.016;2022-12-18T14:04:12;11.25;;;6.28;;
54883;SDS011;40776;52.880;6.016;2022-12-18T14:06:38;9.70;;;5.47;;
54883;SDS011;40776;52.880;6.016;2022-12-18T14:09:04;10.32;;;5.65;;
54883;SDS011;40776;52.880;6.016;2022-12-18T14:11:31;13.77;;;6.32;;
54883;SDS011;40776;52.880;6.016;2022-12-18T14:13:57;11.13;;;5.93;;
54883;SDS011;40776;52.880;6.016;2022-12-18T14:16:23;10.63;;;5.65;;
54883;SDS011;40776;52.880;6.016;2022-12-18T14:18:56;12.05;;;5.70;;
54883;SDS011;40776;52.880;6.016;2022-12-18T14:21:26;12.02;;;5.38;;
54883;SDS011;40776;52.880;6.016;2022-12-18T14:24:11;9.82;;;5.10;;
54883;SDS011;40776;52.880;6.016;2022-12-18T14:26:38;11.20;;;5.45;;
54883;SDS011;40776;52.880;6.016;2022-12-18T14:34:39;11.32;;;5.32;;
54883;SDS011;40776;52.880;6.016;2022-12-18T14:37:05;11.02;;;5.65;;
54883;SDS011;40776;52.880;6.016;2022-12-18T14:39:31;10.20;;;5.30;;
54883;SDS011;40776;52.880;6.016;2022-12-18T14:41:58;8.90;;;5.25;;
54883;SDS011;40776;52.880;6.016;2022-12-18T14:44:24;8.15;;;4.78;;
54883;SDS011;40776;52.880;6.016;2022-12-18T14:46:50;9.48;;;4.90;;
54883;SDS011;40776;52.880;6.016;2022-12-18T14:49:33;6.53;;;4.00;;
54883;SDS011;40776;52.880;6.016;2022-12-18T14:52:03;9.25;;;4.90;;
54883;SDS011;40776;52.880;6.016;2022-12-18T14:54:30;8.75;;;3.80;;
54883;SDS011;40776;52.880;6.016;2022-12-18T14:57:04;8.15;;;4.72;;
54883;SDS011;40776;52.880;6.016;2022-12-18T14:59:30;8.38;;;4.57;;
54883;SDS011;40776;52.880;6.016;2022-12-18T15:04:33;9.45;;;4.95;;
54883;SDS011;40776;52.880;6.016;2022-12-18T15:09:29;11.65;;;5.68;;
54883;SDS011;40776;52.880;6.016;2022-12-18T15:11:58;9.43;;;3.78;;
54883;SDS011;40776;52.880;6.016;2022-12-18T15:14:40;10.02;;;5.68;;
54883;SDS011;40776;52.880;6.016;2022-12-18T15:19:42;12.93;;;6.85;;
54883;SDS011;40776;52.880;6.016;2022-12-18T15:22:28;11.50;;;4.88;;
54883;SDS011;40776;52.880;6.016;2022-12-18T15:24:55;10.43;;;5.75;;
54883;SDS011;40776;52.880;6.016;2022-12-18T15:27:26;7.82;;;4.40;;
54883;SDS011;40776;52.880;6.016;2022-12-18T15:30:00;9.93;;;5.00;;
54883;SDS011;40776;52.880;6.016;2022-12-18T15:32:26;10.18;;;5.60;;
54883;SDS011;40776;52.880;6.016;2022-12-18T15:35:01;9.15;;;4.47;;
54883;SDS011;40776;52.880;6.016;2022-12-18T15:37:27;8.60;;;4.32;;
54883;SDS011;40776;52.880;6.016;2022-12-18T15:39:53;10.10;;;4.72;;
54883;SDS011;40776;52.880;6.016;2022-12-18T15:42:19;10.13;;;4.15;;
54883;SDS011;40776;52.880;6.016;2022-12-18T15:45:04;10.93;;;4.82;;
54883;SDS011;40776;52.880;6.016;2022-12-18T15:47:30;9.60;;;4.70;;
54883;SDS011;40776;52.880;6.016;2022-12-18T15:49:57;12.07;;;5.28;;
54883;SDS011;40776;52.880;6.016;2022-12-18T15:52:26;8.23;;;4.70;;
54883;SDS011;40776;52.880;6.016;2022-12-18T15:55:24;9.23;;;4.60;;
54883;SDS011;40776;52.880;6.016;2022-12-18T15:58:09;8.52;;;4.40;;
54883;SDS011;40776;52.880;6.016;2022-12-18T16:00:37;9.43;;;4.93;;
54883;SDS011;40776;52.880;6.016;2022-12-18T16:03:04;9.80;;;5.15;;
54883;SDS011;40776;52.880;6.016;2022-12-18T16:05:31;13.70;;;4.78;;
54883;SDS011;40776;52.880;6.016;2022-12-18T16:07:57;8.65;;;3.72;;
54883;SDS011;40776;52.880;6.016;2022-12-18T16:10:25;8.38;;;4.63;;
54883;SDS011;40776;52.880;6.016;2022-12-18T16:12:52;10.75;;;5.47;;
54883;SDS011;40776;52.880;6.016;2022-12-18T16:15:18;8.60;;;4.18;;
54883;SDS011;40776;52.880;6.016;2022-12-18T16:17:44;10.05;;;4.75;;
54883;SDS011;40776;52.880;6.016;2022-12-18T16:20:15;8.82;;;5.00;;
54883;SDS011;40776;52.880;6.016;2022-12-18T16:22:41;10.75;;;4.93;;
54883;SDS011;40776;52.880;6.016;2022-12-18T16:25:19;9.18;;;4.40;;
54883;SDS011;40776;52.880;6.016;2022-12-18T16:27:46;11.18;;;5.10;;